Time,TemperatureF,DewpointF,PressureIn,WindDirection,WindDirectionDegrees,WindSpeedMPH,WindSpeedGustMPH,Humidity,HourlyPrecipIn,Conditions,Clouds,dailyrainin,SoftwareType,DateUTC
2013-05-16 00:02:00,73.0,61.0,29.92,WSW,247,3.0,7.0,65,0.00,,,0.00,,2013-05-16 04:02:00,
2013-05-16 00:12:00,73.0,61.0,29.92,WSW,247,3.0,7.0,65,0.00,,,0.00,,2013-05-16 04:12:00,
2013-05-16 00:23:00,73.0,61.0,29.92,SSE,157,2.0,4.0,66,0.00,,,0.00,,2013-05-16 04:23:00,
2013-05-16 00:33:00,72.0,61.0,29.92,WSW,247,1.0,4.0,68,0.00,,,0.00,,2013-05-16 04:33:00,
2013-05-16 00:42:00,72.0,61.0,29.92,WSW,247,1.0,4.0,68,0.00,,,0.00,,2013-05-16 04:42:00,
2013-05-16 00:52:00,72.0,61.0,29.92,South,180,1.0,2.0,69,0.00,,,0.00,,2013-05-16 04:52:00,
2013-05-16 01:02:00,71.0,61.0,29.92,SW,225,1.0,2.0,70,0.00,,,0.00,,2013-05-16 05:02:00,
2013-05-16 01:12:00,71.0,61.0,29.92,SW,225,1.0,2.0,70,0.00,,,0.00,,2013-05-16 05:12:00,
2013-05-16 01:22:00,71.0,61.0,29.92,South,180,2.0,4.0,71,0.00,,,0.00,,2013-05-16 05:22:00,
2013-05-16 01:32:00,71.0,61.0,29.92,SSE,157,1.0,3.0,71,0.00,,,0.00,,2013-05-16 05:32:00,
2013-05-16 01:42:00,71.0,61.0,29.92,SSE,157,1.0,3.0,71,0.00,,,0.00,,2013-05-16 05:42:00,
2013-05-16 01:52:00,71.0,60.0,29.92,WSW,247,2.0,3.0,69,0.00,,,0.00,,2013-05-16 05:52:00,
2013-05-16 02:01:00,71.0,60.0,29.91,WSW,247,2.0,3.0,68,0.00,,,0.00,,2013-05-16 06:01:00,
2013-05-16 02:12:00,71.0,60.0,29.91,WSW,247,2.0,3.0,68,0.00,,,0.00,,2013-05-16 06:12:00,
2013-05-16 02:22:00,70.0,59.0,29.92,SSE,157,0.0,0.0,67,0.00,,,0.00,,2013-05-16 06:22:00,
2013-05-16 02:33:00,70.0,59.0,29.92,West,270,1.0,2.0,67,0.00,,,0.00,,2013-05-16 06:33:00,
2013-05-16 02:43:00,70.0,59.0,29.92,West,270,1.0,2.0,67,0.00,,,0.00,,2013-05-16 06:43:00,
2013-05-16 02:53:00,70.0,59.0,29.91,West,270,1.0,2.0,67,0.00,,,0.00,,2013-05-16 06:53:00,
2013-05-16 03:02:00,69.0,58.0,29.91,SW,225,1.0,2.0,67,0.00,,,0.00,,2013-05-16 07:02:00,
2013-05-16 03:12:00,69.0,58.0,29.91,SW,225,1.0,2.0,67,0.00,,,0.00,,2013-05-16 07:12:00,
2013-05-16 03:24:00,69.0,58.0,29.91,WNW,292,1.0,3.0,67,0.00,,,0.00,,2013-05-16 07:24:00,
2013-05-16 03:34:00,69.0,58.0,29.91,West,270,2.0,3.0,68,0.00,,,0.00,,2013-05-16 07:34:00,
2013-05-16 03:44:00,69.0,58.0,29.91,West,270,2.0,3.0,68,0.00,,,0.00,,2013-05-16 07:44:00,
2013-05-16 03:54:00,69.0,58.0,29.90,WSW,247,0.0,1.0,68,0.00,,,0.00,,2013-05-16 07:54:00,
2013-05-16 04:03:00,69.0,58.0,29.90,South,180,1.0,3.0,69,0.00,,,0.00,,2013-05-16 08:03:00,
2013-05-16 04:13:00,68.0,58.0,29.90,WSW,247,1.0,1.0,70,0.00,,,0.00,,2013-05-16 08:13:00,
2013-05-16 04:23:00,68.0,58.0,29.90,WSW,247,1.0,1.0,70,0.00,,,0.00,,2013-05-16 08:23:00,
2013-05-16 04:34:00,68.0,58.0,29.90,SW,225,1.0,2.0,71,0.00,,,0.00,,2013-05-16 08:34:00,
2013-05-16 04:44:00,68.0,59.0,29.90,WSW,247,0.0,2.0,72,0.00,,,0.00,,2013-05-16 08:44:00,
2013-05-16 04:54:00,68.0,59.0,29.90,WSW,247,0.0,2.0,72,0.00,,,0.00,,2013-05-16 08:54:00,
2013-05-16 05:04:00,68.0,59.0,29.90,West,270,0.0,0.0,72,0.00,,,0.00,,2013-05-16 09:04:00,
2013-05-16 05:14:00,67.0,58.0,29.90,WSW,247,2.0,4.0,74,0.00,,,0.00,,2013-05-16 09:14:00,
2013-05-16 05:24:00,67.0,58.0,29.90,WSW,247,2.0,4.0,74,0.00,,,0.00,,2013-05-16 09:24:00,
2013-05-16 05:35:00,67.0,58.0,29.90,WSW,247,1.0,2.0,74,0.00,,,0.00,,2013-05-16 09:35:00,
2013-05-16 05:45:00,67.0,58.0,29.90,WSW,247,1.0,2.0,74,0.00,,,0.00,,2013-05-16 09:45:00,
2013-05-16 05:55:00,67.0,58.0,29.90,WSW,247,1.0,2.0,74,0.00,,,0.00,,2013-05-16 09:55:00,
2013-05-16 06:05:00,67.0,60.0,29.90,WSW,247,0.0,2.0,77,0.00,,,0.00,,2013-05-16 10:05:00,
2013-05-16 06:15:00,67.0,60.0,29.90,WNW,292,0.0,0.0,77,0.00,,,0.00,,2013-05-16 10:15:00,
2013-05-16 06:24:00,67.0,60.0,29.90,WNW,292,0.0,0.0,77,0.00,,,0.00,,2013-05-16 10:24:00,
2013-05-16 06:36:00,66.0,59.0,29.90,WNW,292,0.0,1.0,79,0.00,,,0.00,,2013-05-16 10:36:00,
2013-05-16 06:45:00,66.0,59.0,29.90,WNW,292,0.0,1.0,79,0.00,,,0.00,,2013-05-16 10:45:00,
2013-05-16 06:56:00,66.0,60.0,29.91,WSW,247,1.0,3.0,81,0.00,,,0.00,,2013-05-16 10:56:00,
2013-05-16 07:05:00,66.0,60.0,29.91,WSW,247,2.0,4.0,82,0.00,,,0.00,,2013-05-16 11:05:00,
2013-05-16 07:14:00,66.0,60.0,29.91,WSW,247,2.0,4.0,82,0.00,,,0.00,,2013-05-16 11:14:00,
2013-05-16 07:25:00,66.0,60.0,29.91,WSW,247,1.0,2.0,82,0.00,,,0.00,,2013-05-16 11:25:00,
2013-05-16 07:35:00,66.0,60.0,29.92,West,270,3.0,6.0,80,0.00,,,0.00,,2013-05-16 11:35:00,
2013-05-16 07:46:00,66.0,60.0,29.92,West,270,3.0,6.0,80,0.00,,,0.00,,2013-05-16 11:46:00,
2013-05-16 07:56:00,67.0,61.0,29.92,WSW,247,2.0,4.0,80,0.00,,,0.00,,2013-05-16 11:56:00,
2013-05-16 08:06:00,68.0,61.0,29.93,West,270,2.0,4.0,77,0.00,,,0.00,,2013-05-16 12:06:00,
2013-05-16 08:13:00,68.0,61.0,29.93,West,270,2.0,4.0,77,0.00,,,0.00,,2013-05-16 12:13:00,
2013-05-16 08:23:00,68.0,61.0,29.94,West,270,1.0,2.0,77,0.00,,,0.00,,2013-05-16 12:23:00,
2013-05-16 08:34:00,69.0,61.0,29.94,WSW,247,2.0,4.0,75,0.00,,,0.00,,2013-05-16 12:34:00,
2013-05-16 08:45:00,69.0,61.0,29.94,WSW,247,2.0,4.0,75,0.00,,,0.00,,2013-05-16 12:45:00,
2013-05-16 08:53:00,69.0,61.0,29.95,West,270,2.0,5.0,75,0.00,,,0.00,,2013-05-16 12:53:00,
2013-05-16 09:04:00,71.0,61.0,29.96,West,270,5.0,6.0,71,0.00,,,0.00,,2013-05-16 13:04:00,
2013-05-16 09:12:00,74.0,63.0,29.97,WSW,247,2.0,4.0,69,0.00,,,0.00,,2013-05-16 13:12:00,
2013-05-16 09:26:00,74.0,63.0,29.97,WSW,247,2.0,4.0,69,0.00,,,0.00,,2013-05-16 13:26:00,
2013-05-16 09:35:00,74.0,63.0,29.98,West,270,4.0,6.0,68,0.00,,,0.00,,2013-05-16 13:35:00,
2013-05-16 09:43:00,74.0,63.0,29.98,West,270,4.0,6.0,68,0.00,,,0.00,,2013-05-16 13:43:00,
2013-05-16 09:55:00,74.0,62.0,29.98,WSW,247,4.0,6.0,67,0.00,,,0.00,,2013-05-16 13:55:00,
2013-05-16 10:05:00,73.0,63.0,29.97,West,270,3.0,6.0,70,0.00,,,0.00,,2013-05-16 14:05:00,
2013-05-16 10:15:00,73.0,63.0,29.97,West,270,3.0,6.0,70,0.00,,,0.00,,2013-05-16 14:15:00,
2013-05-16 10:23:00,73.0,64.0,29.97,West,270,2.0,6.0,73,0.00,,,0.00,,2013-05-16 14:23:00,
2013-05-16 10:37:00,73.0,63.0,29.98,West,270,5.0,7.0,72,0.00,,,0.00,,2013-05-16 14:37:00,
2013-05-16 10:47:00,73.0,63.0,29.98,West,270,5.0,7.0,72,0.00,,,0.00,,2013-05-16 14:47:00,
2013-05-16 10:55:00,74.0,64.0,29.98,West,270,6.0,8.0,71,0.00,,,0.00,,2013-05-16 14:55:00,
2013-05-16 11:08:00,73.0,64.0,29.98,NW,315,6.0,9.0,73,0.00,,,0.00,,2013-05-16 15:08:00,
2013-05-16 11:17:00,72.0,65.0,29.98,NW,315,5.0,7.0,78,0.00,,,0.00,,2013-05-16 15:17:00,
2013-05-16 11:28:00,72.0,65.0,29.98,NW,315,5.0,7.0,78,0.00,,,0.00,,2013-05-16 15:28:00,
2013-05-16 11:40:00,67.0,67.0,29.98,WSW,247,8.0,10.0,100,0.00,,,0.31,,2013-05-16 15:40:00,
2013-05-16 11:50:00,63.0,63.0,29.98,West,270,5.0,7.0,100,0.00,,,0.92,,2013-05-16 15:50:00,
2013-05-16 12:00:00,63.0,63.0,29.98,West,270,5.0,7.0,100,0.00,,,0.92,,2013-05-16 16:00:00,
2013-05-16 12:09:00,62.0,62.0,30.00,West,270,3.0,5.0,100,0.00,,,1.01,,2013-05-16 16:09:00,
2013-05-16 12:30:00,62.0,62.0,29.98,West,270,5.0,6.0,100,0.00,,,1.04,,2013-05-16 16:30:00,
2013-05-16 12:40:00,62.0,-99.9,29.98,WNW,292,5.0,7.0,100,0.00,,,1.05,,2013-05-16 16:40:00,
2013-05-16 12:50:00,62.0,62.0,29.98,WNW,292,5.0,7.0,100,0.00,,,1.05,,2013-05-16 16:50:00,
2013-05-16 13:00:00,61.0,61.0,29.98,North,360,3.0,6.0,100,0.00,,,1.09,,2013-05-16 17:00:00,
2013-05-16 13:10:00,62.0,62.0,29.98,NE,45,1.0,2.0,100,0.00,,,1.10,,2013-05-16 17:10:00,
2013-05-16 13:20:00,62.0,62.0,29.98,NE,45,1.0,2.0,100,0.00,,,1.10,,2013-05-16 17:20:00,
2013-05-16 13:30:00,62.0,62.0,29.97,NE,45,0.0,0.0,100,0.00,,,1.11,,2013-05-16 17:30:00,
2013-05-16 13:40:00,62.0,62.0,29.98,WNW,292,2.0,3.0,100,0.00,,,1.12,,2013-05-16 17:40:00,
2013-05-16 13:50:00,63.0,-99.9,30.00,WNW,292,0.0,1.0,100,0.00,,,1.13,,2013-05-16 17:50:00,
2013-05-16 14:00:00,63.0,-99.9,30.00,WNW,292,0.0,1.0,100,0.00,,,1.13,,2013-05-16 18:00:00,
2013-05-16 14:10:00,63.0,63.0,29.98,ESE,112,1.0,3.0,100,0.00,,,1.14,,2013-05-16 18:10:00,
2013-05-16 14:20:00,63.0,63.0,29.98,ESE,112,1.0,3.0,100,0.00,,,1.14,,2013-05-16 18:20:00,
2013-05-16 14:30:00,-999.0,-99.9,29.98,SE,135,0.0,0.0,100,0.00,,,1.14,,2013-05-16 18:30:00,
2013-05-16 14:40:00,-999.0,-99.9,29.98,South,180,1.0,5.0,100,0.00,,,1.14,,2013-05-16 18:40:00,
2013-05-16 14:50:00,-999.0,-99.9,29.98,South,180,1.0,5.0,100,0.00,,,1.14,,2013-05-16 18:50:00,
2013-05-16 15:00:00,-999.0,-99.9,29.98,SSW,202,2.0,4.0,100,0.00,,,1.14,,2013-05-16 19:00:00,
2013-05-16 15:10:00,65.0,65.0,29.98,South,180,1.0,2.0,100,0.00,,,1.14,,2013-05-16 19:10:00,
2013-05-16 15:20:00,65.0,65.0,29.98,South,180,1.0,2.0,100,0.00,,,1.14,,2013-05-16 19:20:00,
2013-05-16 15:30:00,66.0,66.0,29.98,SSE,157,0.0,0.0,100,0.00,,,1.14,,2013-05-16 19:30:00,
2013-05-16 15:40:00,66.0,-99.9,29.98,SSE,157,1.0,4.0,100,0.00,,,1.14,,2013-05-16 19:40:00,
2013-05-16 15:50:00,-999.0,-99.9,29.98,SSE,157,1.0,4.0,100,0.00,,,1.14,,2013-05-16 19:50:00,
2013-05-16 16:00:00,-999.0,-99.9,29.98,South,180,1.0,2.0,100,0.00,,,1.14,,2013-05-16 20:00:00,
2013-05-16 16:10:00,-999.0,-99.9,29.98,SSE,157,0.0,1.0,100,0.00,,,1.14,,2013-05-16 20:10:00,
2013-05-16 16:20:00,66.0,-99.9,29.98,SSE,157,0.0,1.0,100,0.00,,,1.14,,2013-05-16 20:20:00,
2013-05-16 16:30:00,66.0,66.0,29.98,SSE,157,0.0,1.0,100,0.00,,,1.14,,2013-05-16 20:30:00,
2013-05-16 16:40:00,-999.0,-99.9,29.98,South,180,1.0,3.0,100,0.00,,,1.14,,2013-05-16 20:40:00,
2013-05-16 16:50:00,67.0,67.0,29.97,SE,135,1.0,2.0,100,0.00,,,1.14,,2013-05-16 20:50:00,
2013-05-16 17:00:00,67.0,-99.9,29.97,SE,135,1.0,2.0,100,0.00,,,1.14,,2013-05-16 21:00:00,
2013-05-16 17:10:00,68.0,-99.9,29.98,WNW,292,2.0,4.0,100,0.00,,,1.14,,2013-05-16 21:10:00,
2013-05-16 17:20:00,68.0,-99.9,29.98,WNW,292,2.0,4.0,100,0.00,,,1.14,,2013-05-16 21:20:00,
2013-05-16 17:29:00,68.0,68.0,29.97,South,180,1.0,3.0,100,0.00,,,1.14,,2013-05-16 21:29:00,
2013-05-16 17:38:00,69.0,69.0,29.97,West,270,2.0,5.0,100,0.00,,,1.14,,2013-05-16 21:38:00,
2013-05-16 17:50:00,69.0,-99.9,29.97,West,270,2.0,5.0,100,0.00,,,1.14,,2013-05-16 21:50:00,
2013-05-16 18:00:00,-999.0,-99.9,29.97,West,270,3.0,4.0,100,0.00,,,1.14,,2013-05-16 22:00:00,
2013-05-16 18:08:00,70.0,70.0,29.97,SW,225,3.0,4.0,100,0.00,,,1.14,,2013-05-16 22:08:00,
2013-05-16 18:20:00,70.0,70.0,29.97,SW,225,3.0,4.0,100,0.00,,,1.14,,2013-05-16 22:20:00,
2013-05-16 18:30:00,70.0,70.0,29.98,West,270,2.0,5.0,100,0.00,,,1.14,,2013-05-16 22:30:00,
2013-05-16 18:40:00,69.0,68.0,29.97,SSW,202,1.0,4.0,98,0.00,,,1.14,,2013-05-16 22:40:00,
2013-05-16 18:50:00,69.0,68.0,29.97,SSW,202,1.0,4.0,98,0.00,,,1.14,,2013-05-16 22:50:00,
2013-05-16 19:00:00,69.0,69.0,29.97,SSW,202,1.0,2.0,100,0.00,,,1.14,,2013-05-16 23:00:00,
2013-05-16 19:06:00,69.0,69.0,29.97,SSW,202,1.0,1.0,100,0.00,,,1.14,,2013-05-16 23:06:00,
2013-05-16 19:16:00,69.0,69.0,29.97,SSE,157,3.0,5.0,100,0.00,,,1.14,,2013-05-16 23:16:00,
2013-05-16 19:24:00,69.0,69.0,29.97,SSE,157,3.0,5.0,100,0.00,,,1.14,,2013-05-16 23:24:00,
2013-05-16 19:35:00,69.0,69.0,29.97,SSE,157,0.0,0.0,100,0.00,,,1.14,,2013-05-16 23:35:00,
2013-05-16 19:45:00,69.0,69.0,29.97,SSE,157,0.0,0.0,100,0.00,,,1.14,,2013-05-16 23:45:00,
2013-05-16 19:54:00,69.0,69.0,29.97,SSE,157,0.0,1.0,100,0.00,,,1.14,,2013-05-16 23:54:00,
2013-05-16 20:02:00,68.0,68.0,29.97,SSE,157,0.0,0.0,100,0.00,,,1.14,,2013-05-17 00:02:00,
2013-05-16 20:13:00,68.0,68.0,29.97,SSE,157,0.0,0.0,100,0.00,,,1.14,,2013-05-17 00:13:00,
2013-05-16 20:22:00,68.0,68.0,29.97,SSE,157,0.0,2.0,100,0.00,,,1.14,,2013-05-17 00:22:00,
2013-05-16 20:33:00,68.0,68.0,29.97,SSE,157,0.0,0.0,100,0.00,,,1.14,,2013-05-17 00:33:00,
2013-05-16 20:43:00,68.0,68.0,29.97,SSE,157,0.0,0.0,100,0.00,,,1.14,,2013-05-17 00:43:00,
2013-05-16 20:52:00,67.0,67.0,29.97,SSE,157,0.0,1.0,100,0.00,,,1.14,,2013-05-17 00:52:00,
2013-05-16 21:03:00,67.0,67.0,29.97,SSE,157,0.0,1.0,100,0.00,,,1.14,,2013-05-17 01:03:00,
2013-05-16 21:12:00,67.0,67.0,29.97,SSE,157,0.0,1.0,100,0.00,,,1.14,,2013-05-17 01:12:00,
2013-05-16 21:23:00,66.0,66.0,29.97,SSE,157,0.0,0.0,100,0.00,,,1.14,,2013-05-17 01:23:00,
2013-05-16 21:32:00,65.0,65.0,29.97,SSE,157,0.0,0.0,100,0.00,,,1.14,,2013-05-17 01:32:00,
2013-05-16 21:44:00,65.0,65.0,29.97,SSE,157,0.0,0.0,100,0.00,,,1.14,,2013-05-17 01:44:00,
2013-05-16 21:52:00,65.0,65.0,29.97,SSE,157,0.0,0.0,100,0.00,,,1.14,,2013-05-17 01:52:00,
2013-05-16 22:02:00,64.0,64.0,29.97,SSE,157,0.0,0.0,100,0.00,,,1.14,,2013-05-17 02:02:00,
2013-05-16 22:11:00,64.0,64.0,29.97,SSE,157,0.0,0.0,100,0.00,,,1.14,,2013-05-17 02:11:00,
2013-05-16 22:21:00,64.0,64.0,29.98,SSE,157,0.0,0.0,100,0.00,,,1.14,,2013-05-17 02:21:00,
2013-05-16 22:32:00,64.0,64.0,29.98,SSE,157,0.0,0.0,100,0.00,,,1.14,,2013-05-17 02:32:00,
2013-05-16 22:42:00,64.0,64.0,29.98,SSE,157,0.0,0.0,100,0.00,,,1.14,,2013-05-17 02:42:00,
2013-05-16 22:52:00,63.0,63.0,29.98,SSE,157,0.0,0.0,100,0.00,,,1.14,,2013-05-17 02:52:00,
2013-05-16 23:02:00,64.0,64.0,29.98,SSE,157,0.0,0.0,100,0.00,,,1.14,,2013-05-17 03:02:00,
2013-05-16 23:11:00,64.0,64.0,29.98,SSE,157,0.0,0.0,100,0.00,,,1.14,,2013-05-17 03:11:00,
2013-05-16 23:22:00,63.0,63.0,29.98,SSE,157,0.0,0.0,100,0.00,,,1.14,,2013-05-17 03:22:00,
2013-05-16 23:34:00,63.0,63.0,29.98,SSE,157,0.0,0.0,100,0.00,,,1.14,,2013-05-17 03:34:00,
2013-05-16 23:43:00,63.0,63.0,29.98,SSE,157,0.0,0.0,100,0.00,,,1.14,,2013-05-17 03:43:00,
2013-05-16 23:53:00,62.0,62.0,29.98,SSE,157,0.0,0.0,100,0.00,,,1.14,,2013-05-17 03:53:00,